createdAt,value
2022-10-20T00:00:47.845Z,10.23
2022-10-20T00:02:47.810Z,10.18
2022-10-20T00:03:47.746Z,10.21
2022-10-20T00:04:47.720Z,10.16
2022-10-20T00:05:47.702Z,10.23
2022-10-20T00:06:47.677Z,10.23
2022-10-20T00:07:47.662Z,10.08
2022-10-20T00:08:47.714Z,10.18
2022-10-20T00:09:47.613Z,10.16
2022-10-20T00:10:47.668Z,10.10
2022-10-20T00:11:47.573Z,9.98
2022-10-20T00:12:47.550Z,10.01
2022-10-20T00:13:47.527Z,10.06
2022-10-20T00:14:47.510Z,10.01
2022-10-20T00:15:47.487Z,9.94
2022-10-20T00:16:47.484Z,9.99
2022-10-20T00:17:47.442Z,10.08
2022-10-20T00:18:47.420Z,10.01
2022-10-20T00:19:47.399Z,10.06
2022-10-20T00:20:47.385Z,10.05
2022-10-20T00:21:47.363Z,10.08
2022-10-20T00:22:47.336Z,10.03
2022-10-20T00:23:47.311Z,9.96
2022-10-20T00:24:47.289Z,9.99
2022-10-20T00:25:47.273Z,10.10
2022-10-20T00:26:47.246Z,10.12
2022-10-20T00:27:47.227Z,9.93
2022-10-20T00:28:47.211Z,9.94
2022-10-20T00:29:47.188Z,9.88
2022-10-20T00:30:47.161Z,9.88
2022-10-20T00:31:47.155Z,9.88
2022-10-20T00:32:47.146Z,9.94
2022-10-20T00:33:47.102Z,9.90
2022-10-20T00:34:47.084Z,9.87
2022-10-20T00:35:47.057Z,9.84
2022-10-20T00:36:50.408Z,9.90
2022-10-20T00:37:47.017Z,9.88
2022-10-20T00:38:47.008Z,9.88
2022-10-20T00:39:46.973Z,9.91
2022-10-20T00:40:46.946Z,9.75
2022-10-20T00:41:46.931Z,9.93
2022-10-20T00:42:46.911Z,9.87
2022-10-20T00:43:46.885Z,9.96
2022-10-20T00:44:46.863Z,10.01
2022-10-20T00:45:46.847Z,9.94
2022-10-20T00:46:46.822Z,9.90
2022-10-20T00:47:46.814Z,9.84
2022-10-20T00:48:46.798Z,9.62
2022-10-20T00:49:46.758Z,9.69
2022-10-20T00:50:46.735Z,9.65
2022-10-20T00:51:46.722Z,9.72
2022-10-20T00:52:46.693Z,9.63
2022-10-20T00:53:46.674Z,9.66
2022-10-20T00:54:46.654Z,9.63
2022-10-20T00:55:46.626Z,9.66
2022-10-20T00:56:46.606Z,9.67
2022-10-20T00:57:46.590Z,9.60
2022-10-20T00:58:46.564Z,9.69
2022-10-20T00:59:46.546Z,9.55
2022-10-20T01:00:46.529Z,9.65
2022-10-20T01:01:46.586Z,9.69
2022-10-20T01:02:46.478Z,9.60
2022-10-20T01:03:46.463Z,9.80
2022-10-20T01:04:46.456Z,9.78
2022-10-20T01:05:46.422Z,9.69
2022-10-20T01:06:46.395Z,9.72
2022-10-20T01:07:46.372Z,9.72
2022-10-20T01:08:46.426Z,9.75
2022-10-20T01:09:46.327Z,9.81
2022-10-20T01:10:46.308Z,9.81
2022-10-20T01:11:46.287Z,9.77
2022-10-20T01:12:46.264Z,9.72
2022-10-20T01:13:46.242Z,9.75
2022-10-20T01:14:46.223Z,9.85
2022-10-20T01:15:46.206Z,9.91
2022-10-20T01:16:46.182Z,9.75
2022-10-20T01:17:46.162Z,9.77
2022-10-20T01:18:46.139Z,9.69
2022-10-20T01:19:46.117Z,9.60
2022-10-20T01:20:46.119Z,9.65
2022-10-20T01:21:46.072Z,9.75
2022-10-20T01:22:46.054Z,9.83
2022-10-20T01:23:46.035Z,9.69
2022-10-20T01:24:46.010Z,9.66
2022-10-20T01:25:45.991Z,9.69
2022-10-20T01:26:45.962Z,9.62
2022-10-20T01:27:45.942Z,9.62
2022-10-20T01:28:45.922Z,9.62
2022-10-20T01:29:45.902Z,9.66
2022-10-20T01:30:45.880Z,9.66
2022-10-20T01:31:45.860Z,9.69
2022-10-20T01:32:45.834Z,9.80
2022-10-20T01:33:45.813Z,9.80
2022-10-20T01:34:48.022Z,9.83
2022-10-20T01:35:45.771Z,9.75
2022-10-20T01:36:45.773Z,9.81
2022-10-20T01:37:49.553Z,9.80
2022-10-20T01:38:45.713Z,9.70
2022-10-20T01:39:45.694Z,9.63
2022-10-20T01:40:45.670Z,9.59
2022-10-20T01:41:45.648Z,9.65
2022-10-20T01:42:45.624Z,9.72
2022-10-20T01:43:45.605Z,9.72
2022-10-20T01:44:45.576Z,9.78
2022-10-20T01:45:45.554Z,9.72
2022-10-20T01:46:45.537Z,9.66
2022-10-20T01:47:45.518Z,9.72
2022-10-20T01:48:45.492Z,9.78
2022-10-20T01:49:45.478Z,9.62
2022-10-20T01:50:45.454Z,9.70
2022-10-20T01:51:45.439Z,9.67
2022-10-20T01:52:45.431Z,9.66
2022-10-20T01:53:45.386Z,9.62
2022-10-20T01:54:45.366Z,9.65
2022-10-20T01:55:45.342Z,9.75
2022-10-20T01:56:45.330Z,9.73
2022-10-20T01:57:45.299Z,9.78
2022-10-20T01:58:45.280Z,9.75
2022-10-20T01:59:45.255Z,9.78
2022-10-20T02:00:45.387Z,9.80
2022-10-20T02:01:45.278Z,9.72
2022-10-20T02:02:45.197Z,9.65
2022-10-20T02:03:45.176Z,9.66
2022-10-20T02:04:45.154Z,9.81
2022-10-20T02:05:45.132Z,9.62
2022-10-20T02:06:45.113Z,9.70
2022-10-20T02:07:45.087Z,9.59
2022-10-20T02:08:45.131Z,9.63
2022-10-20T02:09:45.131Z,9.66
2022-10-20T02:10:45.022Z,9.62
2022-10-20T02:11:45.000Z,9.66
2022-10-20T02:12:44.986Z,9.77
2022-10-20T02:13:44.955Z,9.67
2022-10-20T02:14:44.938Z,9.80
2022-10-20T02:15:44.916Z,9.81
2022-10-20T02:16:44.895Z,9.87
2022-10-20T02:17:44.876Z,9.90
2022-10-20T02:18:44.852Z,9.84
2022-10-20T02:19:44.828Z,9.90
2022-10-20T02:20:44.814Z,9.88
2022-10-20T02:21:44.786Z,9.90
2022-10-20T02:22:44.766Z,9.98
2022-10-20T02:23:44.745Z,10.01
2022-10-20T02:24:44.743Z,9.99
2022-10-20T02:25:44.703Z,9.94
2022-10-20T02:26:44.677Z,10.05
2022-10-20T02:27:44.659Z,9.96
2022-10-20T02:28:44.640Z,9.96
2022-10-20T02:29:44.618Z,9.91
2022-10-20T02:30:44.598Z,9.73
2022-10-20T02:31:44.575Z,9.70
2022-10-20T02:32:44.561Z,9.78
2022-10-20T02:33:44.533Z,9.81
2022-10-20T02:34:44.517Z,9.84
2022-10-20T02:35:44.486Z,9.69
2022-10-20T02:36:44.468Z,9.75
2022-10-20T02:37:44.446Z,9.77
2022-10-20T02:38:44.425Z,9.80
2022-10-20T02:39:44.403Z,9.78
2022-10-20T02:40:44.403Z,9.80
2022-10-20T02:41:44.364Z,9.78
2022-10-20T02:42:44.337Z,9.73
2022-10-20T02:43:44.314Z,9.78
2022-10-20T02:44:44.296Z,9.75
2022-10-20T02:45:44.279Z,9.70
2022-10-20T02:46:44.251Z,9.67
2022-10-20T02:47:44.231Z,9.63
2022-10-20T02:48:44.211Z,9.63
2022-10-20T02:49:44.188Z,9.63
2022-10-20T02:50:44.171Z,9.59
2022-10-20T02:51:44.148Z,9.59
2022-10-20T02:52:44.127Z,9.55
2022-10-20T02:53:44.103Z,9.41
2022-10-20T02:54:44.076Z,9.42
2022-10-20T02:55:44.062Z,9.36
2022-10-20T02:56:44.057Z,9.37
2022-10-20T02:57:44.022Z,9.41
2022-10-20T02:58:43.994Z,9.40
2022-10-20T02:59:43.978Z,9.48
2022-10-20T03:00:43.948Z,9.45
2022-10-20T03:01:43.980Z,9.59
2022-10-20T03:02:43.910Z,9.52
2022-10-20T03:03:43.887Z,9.54
2022-10-20T03:04:43.866Z,9.59
2022-10-20T03:05:43.845Z,9.65
2022-10-20T03:06:43.831Z,9.62
2022-10-20T03:07:43.803Z,9.57
2022-10-20T03:08:43.831Z,9.55
2022-10-20T03:09:43.757Z,9.52
2022-10-20T03:10:43.741Z,9.44
2022-10-20T03:11:43.713Z,9.48
2022-10-20T03:12:43.717Z,9.42
2022-10-20T03:13:43.674Z,9.42
2022-10-20T03:14:43.649Z,9.44
2022-10-20T03:15:43.638Z,9.45
2022-10-20T03:16:43.603Z,9.44
2022-10-20T03:17:43.591Z,9.37
2022-10-20T03:18:43.569Z,9.34
2022-10-20T03:19:43.542Z,9.42
2022-10-20T03:20:43.516Z,9.27
2022-10-20T03:21:43.498Z,9.42
2022-10-20T03:22:43.478Z,9.41
2022-10-20T03:23:43.456Z,9.44
2022-10-20T03:24:43.438Z,9.44
2022-10-20T03:25:43.417Z,9.40
2022-10-20T03:26:43.388Z,9.36
2022-10-20T03:27:43.372Z,9.48
2022-10-20T03:28:43.380Z,9.33
2022-10-20T03:29:43.328Z,9.26
2022-10-20T03:30:43.302Z,9.29
2022-10-20T03:31:43.369Z,9.40
2022-10-20T03:32:43.264Z,9.44
2022-10-20T03:33:43.244Z,9.32
2022-10-20T03:34:43.219Z,9.30
2022-10-20T03:35:43.194Z,9.29
2022-10-20T03:36:43.174Z,9.30
2022-10-20T03:37:43.153Z,9.33
2022-10-20T03:38:43.133Z,9.29
2022-10-20T03:39:43.116Z,9.27
2022-10-20T03:40:43.087Z,9.40
2022-10-20T03:41:43.068Z,9.40
2022-10-20T03:42:43.046Z,9.30
2022-10-20T03:43:43.023Z,9.41
2022-10-20T03:44:43.019Z,9.45
2022-10-20T03:45:42.981Z,9.44
2022-10-20T03:46:42.961Z,9.44
2022-10-20T03:47:42.936Z,9.42
2022-10-20T03:48:42.917Z,9.48
2022-10-20T03:49:42.896Z,9.44
2022-10-20T03:50:42.876Z,9.40
2022-10-20T03:51:42.851Z,9.44
2022-10-20T03:52:42.828Z,9.42
2022-10-20T03:53:42.806Z,9.40
2022-10-20T03:54:42.786Z,9.52
2022-10-20T03:55:42.763Z,9.52
2022-10-20T03:56:42.739Z,9.59
2022-10-20T03:57:42.725Z,9.69
2022-10-20T03:58:42.702Z,9.65
2022-10-20T03:59:42.676Z,9.65
2022-10-20T04:00:42.674Z,9.69
2022-10-20T04:01:42.740Z,9.80
2022-10-20T04:02:42.613Z,9.73
2022-10-20T04:03:42.589Z,9.65
2022-10-20T04:04:42.572Z,9.63
2022-10-20T04:05:42.550Z,9.66
2022-10-20T04:06:42.532Z,9.62
2022-10-20T04:07:42.513Z,9.59
2022-10-20T04:08:42.590Z,9.44
2022-10-20T04:09:42.464Z,9.55
2022-10-20T04:10:42.442Z,9.62
2022-10-20T04:11:42.417Z,9.63
2022-10-20T04:12:42.402Z,9.60
2022-10-20T04:13:42.376Z,9.72
2022-10-20T04:14:42.354Z,9.66
2022-10-20T04:15:42.330Z,9.67
2022-10-20T04:16:42.332Z,9.69
2022-10-20T04:17:42.293Z,9.55
2022-10-20T04:18:42.271Z,9.52
2022-10-20T04:19:42.248Z,9.44
2022-10-20T04:20:44.435Z,9.42
2022-10-20T04:21:42.206Z,9.29
2022-10-20T04:22:42.184Z,9.27
2022-10-20T04:23:42.161Z,9.41
2022-10-20T04:24:42.140Z,9.32
2022-10-20T04:25:42.121Z,9.19
2022-10-20T04:26:42.123Z,9.26
2022-10-20T04:27:42.076Z,9.30
2022-10-20T04:28:42.055Z,9.34
2022-10-20T04:29:42.032Z,9.30
2022-10-20T04:30:42.014Z,9.29
2022-10-20T04:31:45.379Z,9.22
2022-10-20T04:32:41.985Z,9.24
2022-10-20T04:33:41.950Z,9.32
2022-10-20T04:34:41.922Z,9.27
2022-10-20T04:35:41.942Z,9.40
2022-10-20T04:36:41.888Z,9.33
2022-10-20T04:37:41.856Z,9.33
2022-10-20T04:38:41.839Z,9.24
2022-10-20T04:39:41.816Z,9.27
2022-10-20T04:40:41.794Z,9.29
2022-10-20T04:41:41.774Z,9.26
2022-10-20T04:42:41.750Z,9.44
2022-10-20T04:43:41.729Z,9.29
2022-10-20T04:44:41.714Z,9.24
2022-10-20T04:45:41.686Z,9.26
2022-10-20T04:46:41.670Z,9.33
2022-10-20T04:47:41.643Z,9.16
2022-10-20T04:48:41.644Z,9.27
2022-10-20T04:49:41.603Z,9.19
2022-10-20T04:50:41.581Z,9.27
2022-10-20T04:51:41.560Z,9.30
2022-10-20T04:52:41.541Z,9.30
2022-10-20T04:53:41.520Z,9.34
2022-10-20T04:54:41.490Z,9.27
2022-10-20T04:55:41.471Z,9.27
2022-10-20T04:56:41.448Z,9.30
2022-10-20T04:57:41.429Z,9.36
2022-10-20T04:58:41.407Z,9.42
2022-10-20T04:59:41.381Z,9.37
2022-10-20T05:00:41.360Z,9.41
2022-10-20T05:01:41.405Z,9.45
2022-10-20T05:02:41.315Z,9.55
2022-10-20T05:03:41.299Z,9.47
2022-10-20T05:04:41.293Z,9.57
2022-10-20T05:05:41.258Z,9.60
2022-10-20T05:06:41.234Z,9.60
2022-10-20T05:07:41.210Z,9.62
2022-10-20T05:08:41.240Z,9.62
2022-10-20T05:09:41.168Z,9.63
2022-10-20T05:10:41.145Z,9.59
2022-10-20T05:11:41.119Z,9.50
2022-10-20T05:12:41.099Z,9.51
2022-10-20T05:13:41.083Z,9.59
2022-10-20T05:14:41.058Z,9.54
2022-10-20T05:15:41.037Z,9.57
2022-10-20T05:16:41.017Z,9.51
2022-10-20T05:17:40.993Z,9.55
2022-10-20T05:18:40.974Z,9.47
2022-10-20T05:19:40.950Z,9.51
2022-10-20T05:20:57.187Z,9.57
2022-10-20T05:22:40.887Z,9.29
2022-10-20T05:23:40.864Z,9.26
2022-10-20T05:24:40.847Z,9.27
2022-10-20T05:25:40.825Z,9.34
2022-10-20T05:26:40.800Z,9.48
2022-10-20T05:27:40.780Z,9.40
2022-10-20T05:28:40.755Z,9.55
2022-10-20T05:29:40.734Z,9.59
2022-10-20T05:31:40.692Z,9.55
2022-10-20T05:32:40.675Z,9.66
2022-10-20T05:33:40.655Z,9.62
2022-10-20T05:34:40.633Z,9.52
2022-10-20T05:35:40.612Z,9.47
2022-10-20T05:36:40.603Z,9.40
2022-10-20T05:37:40.564Z,9.52
2022-10-20T05:38:40.543Z,9.57
2022-10-20T05:39:40.572Z,9.59
2022-10-20T05:40:40.502Z,9.69
2022-10-20T05:41:40.498Z,9.63
2022-10-20T05:42:40.459Z,9.52
2022-10-20T05:43:40.437Z,9.55
2022-10-20T05:44:40.417Z,9.48
2022-10-20T05:45:40.392Z,9.40
2022-10-20T05:46:40.370Z,9.44
2022-10-20T05:47:40.348Z,9.42
2022-10-20T05:48:43.047Z,9.42
2022-10-20T05:49:40.303Z,9.37
2022-10-20T05:50:40.336Z,9.41
2022-10-20T05:51:40.258Z,9.42
2022-10-20T05:52:40.258Z,9.42
2022-10-20T05:53:40.217Z,9.41
2022-10-20T05:54:40.197Z,9.41
2022-10-20T05:55:40.175Z,9.54
2022-10-20T05:56:40.149Z,9.60
2022-10-20T05:57:40.129Z,9.67
2022-10-20T05:58:40.110Z,9.65
2022-10-20T05:59:40.094Z,9.55
2022-10-20T06:00:40.071Z,9.57
2022-10-20T06:01:40.074Z,9.55
2022-10-20T06:02:40.079Z,9.59
2022-10-20T06:03:40.003Z,9.52
2022-10-20T06:04:39.979Z,9.52
2022-10-20T06:05:39.963Z,9.57
2022-10-20T06:06:39.936Z,9.41
2022-10-20T06:07:39.927Z,9.40
2022-10-20T06:08:39.955Z,9.48
2022-10-20T06:09:39.878Z,9.42
2022-10-20T06:10:39.853Z,9.44
2022-10-20T06:11:39.969Z,9.59
2022-10-20T06:12:39.833Z,9.60
2022-10-20T06:13:39.789Z,9.55
2022-10-20T06:14:39.763Z,9.42
2022-10-20T06:15:39.745Z,9.47
2022-10-20T06:16:39.722Z,9.40
2022-10-20T06:17:39.719Z,9.45
2022-10-20T06:18:39.679Z,9.63
2022-10-20T06:19:39.661Z,9.54
2022-10-20T06:20:39.636Z,9.66
2022-10-20T06:21:39.728Z,9.65
2022-10-20T06:22:39.890Z,9.66
2022-10-20T06:23:39.569Z,9.67
2022-10-20T06:24:39.571Z,9.66
2022-10-20T06:25:39.528Z,9.70
2022-10-20T06:26:39.508Z,9.66
2022-10-20T06:27:39.482Z,9.72
2022-10-20T06:28:39.461Z,9.66
2022-10-20T06:29:39.441Z,9.69
2022-10-20T06:30:39.423Z,9.67
2022-10-20T06:31:39.400Z,9.67
2022-10-20T06:32:39.546Z,9.80
2022-10-20T06:33:39.362Z,9.78
2022-10-20T06:34:39.335Z,9.85
2022-10-20T06:35:39.317Z,9.91
2022-10-20T06:36:39.290Z,9.90
2022-10-20T06:37:39.271Z,9.96
2022-10-20T06:38:39.255Z,9.99
2022-10-20T06:39:39.230Z,10.10
2022-10-20T06:40:39.232Z,10.12
2022-10-20T06:41:39.192Z,9.99
2022-10-20T06:42:39.489Z,10.06
2022-10-20T06:43:39.146Z,9.96
2022-10-20T06:44:39.126Z,9.96
2022-10-20T06:45:39.100Z,9.94
2022-10-20T06:46:39.081Z,10.01
2022-10-20T06:47:39.528Z,9.91
2022-10-20T06:48:39.039Z,9.99
2022-10-20T06:49:39.027Z,10.05
2022-10-20T06:50:38.994Z,10.10
2022-10-20T06:51:38.971Z,10.20
2022-10-20T06:52:39.294Z,10.23
2022-10-20T06:53:42.685Z,10.23
2022-10-20T06:54:38.914Z,10.23
2022-10-20T06:55:38.892Z,10.14
2022-10-20T06:56:38.890Z,10.12
2022-10-20T06:57:38.845Z,10.12
2022-10-20T06:58:38.833Z,10.06
2022-10-20T06:59:38.806Z,10.23
2022-10-20T07:00:38.793Z,10.14
2022-10-20T07:01:38.829Z,10.12
2022-10-20T07:02:39.081Z,10.12
2022-10-20T07:03:38.724Z,10.09
2022-10-20T07:04:38.699Z,10.16
2022-10-20T07:05:38.677Z,10.23
2022-10-20T07:06:38.660Z,10.26
2022-10-20T07:07:38.636Z,10.17
2022-10-20T07:08:38.636Z,10.28
2022-10-20T07:09:38.595Z,10.24
2022-10-20T07:10:38.571Z,10.20
2022-10-20T07:11:38.560Z,10.20
2022-10-20T07:12:38.868Z,10.27
2022-10-20T07:13:38.507Z,10.28
2022-10-20T07:14:38.496Z,10.34
2022-10-20T07:15:38.466Z,10.38
2022-10-20T07:16:38.446Z,10.34
2022-10-20T07:17:38.426Z,10.43
2022-10-20T07:18:38.469Z,10.58
2022-10-20T07:19:38.386Z,10.57
2022-10-20T07:20:38.370Z,10.61
2022-10-20T07:21:41.610Z,10.54
2022-10-20T07:22:38.955Z,10.58
2022-10-20T07:23:38.299Z,10.54
2022-10-20T07:24:38.283Z,10.43
2022-10-20T07:25:38.265Z,10.45
2022-10-20T07:26:38.237Z,10.65
2022-10-20T07:27:38.218Z,10.61
2022-10-20T07:28:38.231Z,10.61
2022-10-20T07:29:38.174Z,10.62
2022-10-20T07:30:38.150Z,10.65
2022-10-20T07:31:38.142Z,10.75
2022-10-20T07:32:38.546Z,10.67
2022-10-20T07:33:38.113Z,10.79
2022-10-20T07:34:38.076Z,10.79
2022-10-20T07:35:38.050Z,10.90
2022-10-20T07:36:38.027Z,10.86
2022-10-20T07:37:38.501Z,10.91
2022-10-20T07:38:37.988Z,10.82
2022-10-20T07:39:37.965Z,10.85
2022-10-20T07:40:37.942Z,10.83
2022-10-20T07:41:37.923Z,10.95
2022-10-20T07:42:38.390Z,10.98
2022-10-20T07:43:37.883Z,10.98
2022-10-20T07:44:37.885Z,11.05
2022-10-20T07:45:37.843Z,11.11
2022-10-20T07:46:37.855Z,11.19
2022-10-20T07:47:38.293Z,11.31
2022-10-20T07:48:37.777Z,11.23
2022-10-20T07:49:45.346Z,11.19
2022-10-20T07:50:37.740Z,11.23
2022-10-20T07:51:37.736Z,11.22
2022-10-20T07:52:38.054Z,11.16
2022-10-20T07:53:37.678Z,11.08
2022-10-20T07:54:37.659Z,11.08
2022-10-20T07:55:38.955Z,11.18
2022-10-20T07:56:37.615Z,11.20
2022-10-20T07:57:37.598Z,11.11
2022-10-20T07:58:37.601Z,11.09
2022-10-20T07:59:37.552Z,11.18
2022-10-20T08:00:37.557Z,11.18
2022-10-20T08:01:37.568Z,11.22
2022-10-20T08:02:37.872Z,11.25
2022-10-20T08:03:37.478Z,11.20
2022-10-20T08:04:37.473Z,11.12
2022-10-20T08:05:37.438Z,11.22
2022-10-20T08:06:39.082Z,11.19
2022-10-20T08:07:37.414Z,11.16
2022-10-20T08:08:37.422Z,11.15
2022-10-20T08:09:37.398Z,11.16
2022-10-20T08:10:37.344Z,11.20
2022-10-20T08:11:37.313Z,11.30
2022-10-20T08:12:37.833Z,11.22
2022-10-20T08:13:37.288Z,11.25
2022-10-20T08:14:37.250Z,11.41
2022-10-20T08:15:37.240Z,11.43
2022-10-20T08:16:37.559Z,11.43
2022-10-20T08:17:37.599Z,11.54
2022-10-20T08:18:37.403Z,11.61
2022-10-20T08:19:37.168Z,11.61
2022-10-20T08:20:37.688Z,11.62
2022-10-20T08:21:37.107Z,11.67
2022-10-20T08:22:37.448Z,11.77
2022-10-20T08:23:37.094Z,11.82
2022-10-20T08:24:37.038Z,11.88
2022-10-20T08:25:37.033Z,11.95
2022-10-20T08:26:37.010Z,12.15
2022-10-20T08:27:36.981Z,12.35
2022-10-20T08:28:36.968Z,12.46
2022-10-20T08:29:36.939Z,12.53
2022-10-20T08:30:36.926Z,12.68
2022-10-20T08:31:36.904Z,12.84
2022-10-20T08:32:37.343Z,13.05
2022-10-20T08:33:36.889Z,13.05
2022-10-20T08:34:36.847Z,13.16
2022-10-20T08:35:36.827Z,13.19
2022-10-20T08:36:36.819Z,13.32
2022-10-20T08:37:37.179Z,13.39
2022-10-20T08:38:36.773Z,13.35
2022-10-20T08:39:36.751Z,13.43
2022-10-20T08:40:36.733Z,13.51
2022-10-20T08:41:55.382Z,13.63
2022-10-20T08:42:36.701Z,13.76
2022-10-20T08:43:36.671Z,13.72
2022-10-20T08:44:36.659Z,13.78
2022-10-20T08:45:38.544Z,13.71
2022-10-20T08:46:36.618Z,13.86
2022-10-20T08:47:37.010Z,13.94
2022-10-20T08:48:36.583Z,14.18
2022-10-20T08:49:36.585Z,14.33
2022-10-20T08:50:36.550Z,14.44
2022-10-20T08:51:36.535Z,14.44
2022-10-20T08:52:36.505Z,14.56
2022-10-20T08:53:36.493Z,14.87
2022-10-20T08:54:36.505Z,15.12
2022-10-20T08:55:36.460Z,15.32
2022-10-20T08:56:36.439Z,15.85
2022-10-20T08:57:36.874Z,16.44
2022-10-20T08:58:36.405Z,16.55
2022-10-20T08:59:39.220Z,16.44
2022-10-20T09:00:36.366Z,16.73
2022-10-20T09:01:36.396Z,16.91
2022-10-20T09:02:36.337Z,16.76
2022-10-20T09:03:36.320Z,16.58
2022-10-20T09:04:36.344Z,16.42
2022-10-20T09:05:36.312Z,16.33
2022-10-20T09:06:36.278Z,16.32
2022-10-20T09:07:36.621Z,16.47
2022-10-20T09:08:36.287Z,16.67
2022-10-20T09:09:36.228Z,16.79
2022-10-20T09:10:36.208Z,16.92
2022-10-20T09:11:36.196Z,17.24
2022-10-20T09:12:36.180Z,17.50
2022-10-20T09:13:36.215Z,17.63
2022-10-20T09:14:36.150Z,17.84
2022-10-20T09:15:36.136Z,17.62
2022-10-20T09:16:42.179Z,17.41
2022-10-20T09:17:36.361Z,17.10
2022-10-20T09:18:36.094Z,16.92
2022-10-20T09:19:36.075Z,16.55
2022-10-20T09:20:36.082Z,16.22
2022-10-20T09:21:36.065Z,15.98
2022-10-20T09:22:36.322Z,15.73
2022-10-20T09:23:41.121Z,15.47
2022-10-20T09:24:35.998Z,15.32
2022-10-20T09:25:35.985Z,15.25
2022-10-20T09:26:54.671Z,15.40
2022-10-20T09:27:36.338Z,15.22
2022-10-20T09:28:55.382Z,15.14
2022-10-20T09:29:35.913Z,14.99
2022-10-20T09:30:35.902Z,14.87
2022-10-20T09:31:35.885Z,14.79
2022-10-20T09:32:51.393Z,14.78
2022-10-20T09:33:35.850Z,14.71
2022-10-20T09:34:35.832Z,14.58
2022-10-20T09:35:35.815Z,14.36
2022-10-20T09:36:35.801Z,14.53
2022-10-20T09:37:35.801Z,14.71
2022-10-20T09:38:35.769Z,15.03
2022-10-20T09:39:37.458Z,15.44
2022-10-20T09:40:35.730Z,15.72
2022-10-20T09:41:35.718Z,16.09
2022-10-20T09:42:36.005Z,16.32
2022-10-20T09:43:35.680Z,16.47
2022-10-20T09:44:35.678Z,16.34
2022-10-20T09:45:35.643Z,16.14
2022-10-20T09:46:35.635Z,15.88
2022-10-20T09:47:35.610Z,15.91
2022-10-20T09:48:35.594Z,16.13
2022-10-20T09:49:35.580Z,16.34
2022-10-20T09:50:35.565Z,16.57
2022-10-20T09:51:35.547Z,16.69
2022-10-20T09:52:36.092Z,16.76
2022-10-20T09:53:35.534Z,16.74
2022-10-20T09:54:35.499Z,16.74
2022-10-20T09:55:35.481Z,16.72
2022-10-20T09:56:35.468Z,16.83
2022-10-20T09:57:35.455Z,16.82
2022-10-20T09:58:35.429Z,16.62
2022-10-20T09:59:35.421Z,16.24
2022-10-20T10:00:37.828Z,16.13
2022-10-20T10:01:35.379Z,16.03
2022-10-20T10:02:35.745Z,16.09
2022-10-20T10:03:35.346Z,16.29
2022-10-20T10:04:35.338Z,16.17
2022-10-20T10:05:35.311Z,16.05
2022-10-20T10:06:35.305Z,16.03
2022-10-20T10:07:35.279Z,16.29
2022-10-20T10:08:35.299Z,16.29
2022-10-20T10:09:35.290Z,16.29
2022-10-20T10:10:35.233Z,16.22
2022-10-20T10:11:35.216Z,16.24
2022-10-20T10:12:35.553Z,16.21
2022-10-20T10:13:35.184Z,16.21
2022-10-20T10:14:35.164Z,16.17
2022-10-20T10:15:35.149Z,16.22
2022-10-20T10:16:35.133Z,16.22
2022-10-20T10:17:35.540Z,16.24
2022-10-20T10:18:35.099Z,16.06
2022-10-20T10:19:35.083Z,16.06
2022-10-20T10:20:35.071Z,16.08
2022-10-20T10:21:35.059Z,16.05
2022-10-20T10:22:35.370Z,16.05
2022-10-20T10:23:35.022Z,16.08
2022-10-20T10:24:34.995Z,16.13
2022-10-20T10:25:35.001Z,16.03
2022-10-20T10:26:34.966Z,15.98
2022-10-20T10:27:34.950Z,15.91
2022-10-20T10:28:34.926Z,15.93
2022-10-20T10:29:34.913Z,15.96
2022-10-20T10:30:34.896Z,15.91
2022-10-20T10:31:34.883Z,15.91
2022-10-20T10:32:35.280Z,15.96
2022-10-20T10:33:34.843Z,15.91
2022-10-20T10:34:34.825Z,15.85
2022-10-20T10:35:34.806Z,15.72
2022-10-20T10:36:34.790Z,15.77
2022-10-20T10:37:35.273Z,15.77
2022-10-20T10:38:34.759Z,15.70
2022-10-20T10:39:34.739Z,15.80
2022-10-20T10:40:34.728Z,15.70
2022-10-20T10:41:34.724Z,15.80
2022-10-20T10:42:34.907Z,15.87
2022-10-20T10:43:34.670Z,15.78
2022-10-20T10:44:34.649Z,15.83
2022-10-20T10:45:34.650Z,15.85
2022-10-20T10:46:34.649Z,15.93
2022-10-20T10:47:37.803Z,15.83
2022-10-20T10:48:34.582Z,15.91
2022-10-20T10:49:34.567Z,15.88
2022-10-20T10:50:34.546Z,15.88
2022-10-20T10:51:34.527Z,15.90
2022-10-20T10:52:34.508Z,15.91
2022-10-20T10:53:34.494Z,15.91
2022-10-20T10:54:34.483Z,15.85
2022-10-20T10:55:48.358Z,15.88
2022-10-20T10:56:34.464Z,15.91
2022-10-20T10:57:34.765Z,15.87
2022-10-20T10:58:34.408Z,15.88
2022-10-20T10:59:34.394Z,15.90
2022-10-20T11:00:34.409Z,15.93
2022-10-20T11:01:34.351Z,15.91
2022-10-20T11:02:34.718Z,15.96
2022-10-20T11:03:37.644Z,16.00
2022-10-20T11:04:34.305Z,16.05
2022-10-20T11:05:34.282Z,16.14
2022-10-20T11:06:34.266Z,16.09
2022-10-20T11:07:34.626Z,16.24
2022-10-20T11:08:34.306Z,16.24
2022-10-20T11:09:34.213Z,16.32
2022-10-20T11:10:34.199Z,16.29
2022-10-20T11:11:34.178Z,16.47
2022-10-20T11:12:34.158Z,16.49
2022-10-20T11:13:34.162Z,16.33
2022-10-20T11:14:34.127Z,16.26
2022-10-20T11:15:34.107Z,16.34
2022-10-20T11:16:34.087Z,16.32
2022-10-20T11:17:34.304Z,16.33
2022-10-20T11:18:34.054Z,16.29
2022-10-20T11:19:34.037Z,16.16
2022-10-20T11:20:34.018Z,16.28
2022-10-20T11:21:34.008Z,16.25
2022-10-20T11:22:33.993Z,16.34
2022-10-20T11:24:33.948Z,16.34
2022-10-20T11:25:33.944Z,16.29
2022-10-20T11:26:33.911Z,16.33
2022-10-20T11:27:34.181Z,16.34
2022-10-20T11:28:33.880Z,16.28
2022-10-20T11:29:33.889Z,16.37
2022-10-20T11:30:33.840Z,16.28
2022-10-20T11:31:33.823Z,16.33
2022-10-20T11:32:33.807Z,16.33
2022-10-20T11:33:35.731Z,16.34
2022-10-20T11:34:33.772Z,16.40
2022-10-20T11:35:33.762Z,16.24
2022-10-20T11:36:33.746Z,16.33
2022-10-20T11:37:33.963Z,16.26
2022-10-20T11:38:33.706Z,16.26
2022-10-20T11:39:33.697Z,16.28
2022-10-20T11:40:33.675Z,16.28
2022-10-20T11:41:33.727Z,16.25
2022-10-20T11:42:33.925Z,16.17
2022-10-20T11:43:33.621Z,16.28
2022-10-20T11:44:33.605Z,16.26
2022-10-20T11:45:33.601Z,16.34
2022-10-20T11:46:33.562Z,16.32
2022-10-20T11:47:33.544Z,16.24
2022-10-20T11:48:33.536Z,16.17
2022-10-20T11:49:33.512Z,16.29
2022-10-20T11:50:33.499Z,16.14
2022-10-20T11:51:33.478Z,16.34
2022-10-20T11:52:33.549Z,16.29
2022-10-20T11:53:33.445Z,16.33
2022-10-20T11:54:33.427Z,16.33
2022-10-20T11:55:33.404Z,16.32
2022-10-20T11:56:33.400Z,16.28
2022-10-20T11:57:33.369Z,16.36
2022-10-20T11:58:33.348Z,16.34
2022-10-20T11:59:33.329Z,16.28
2022-10-20T12:00:33.327Z,16.36
2022-10-20T12:01:33.423Z,16.40
2022-10-20T12:02:33.464Z,16.43
2022-10-20T12:03:33.264Z,16.44
2022-10-20T12:04:33.243Z,16.42
2022-10-20T12:05:33.233Z,16.42
2022-10-20T12:06:33.223Z,16.40
2022-10-20T12:07:33.186Z,16.43
2022-10-20T12:08:33.261Z,16.51
2022-10-20T12:09:33.204Z,16.47
2022-10-20T12:10:33.135Z,16.42
2022-10-20T12:11:33.123Z,16.44
2022-10-20T12:12:33.240Z,16.44
2022-10-20T12:13:33.096Z,16.46
2022-10-20T12:14:33.071Z,16.40
2022-10-20T12:15:33.049Z,16.46
2022-10-20T12:16:33.036Z,16.46
2022-10-20T12:17:33.036Z,16.43
2022-10-20T12:18:32.998Z,16.46
2022-10-20T12:19:32.978Z,16.51
2022-10-20T12:20:32.963Z,16.49
2022-10-20T12:21:34.469Z,16.46
2022-10-20T12:22:32.927Z,16.52
2022-10-20T12:23:32.909Z,16.46
2022-10-20T12:24:32.938Z,16.37
2022-10-20T12:25:32.882Z,16.42
2022-10-20T12:26:32.858Z,16.29
2022-10-20T12:27:32.840Z,16.33
2022-10-20T12:28:32.862Z,16.32
2022-10-20T12:29:32.801Z,16.28
2022-10-20T12:30:32.787Z,16.37
2022-10-20T12:31:32.775Z,16.32
2022-10-20T12:32:32.766Z,16.29
2022-10-20T12:33:32.782Z,16.34
2022-10-20T12:34:32.717Z,16.33
2022-10-20T12:35:32.705Z,16.28
2022-10-20T12:36:32.682Z,16.33
2022-10-20T12:37:32.664Z,16.29
2022-10-20T12:38:32.647Z,16.33
2022-10-20T12:39:32.631Z,16.34
2022-10-20T12:40:32.649Z,16.22
2022-10-20T12:41:32.590Z,16.28
2022-10-20T12:42:32.595Z,16.32
2022-10-20T12:43:32.554Z,16.25
2022-10-20T12:44:32.542Z,16.36
2022-10-20T12:45:32.520Z,16.24
2022-10-20T12:46:32.507Z,16.24
2022-10-20T12:47:32.497Z,16.22
2022-10-20T12:48:32.472Z,16.21
2022-10-20T12:49:32.475Z,16.24
2022-10-20T12:50:32.432Z,16.17
2022-10-20T12:51:32.414Z,16.28
2022-10-20T12:52:32.398Z,16.18
2022-10-20T12:53:32.382Z,16.21
2022-10-20T12:54:32.361Z,16.25
2022-10-20T12:55:33.638Z,16.22
2022-10-20T12:56:32.330Z,16.33
2022-10-20T12:57:32.314Z,16.25
2022-10-20T12:58:32.298Z,16.26
2022-10-20T12:59:32.275Z,16.28
2022-10-20T13:00:32.294Z,16.33
2022-10-20T13:01:32.243Z,16.28
2022-10-20T13:02:32.222Z,16.28
2022-10-20T13:03:32.210Z,16.10
2022-10-20T13:04:32.203Z,16.08
2022-10-20T13:05:32.188Z,16.18
2022-10-20T13:06:32.158Z,16.22
2022-10-20T13:07:32.137Z,16.18
2022-10-20T13:08:32.182Z,16.24